sensor_id;sensor_type;location;lat;lon;timestamp;pressure;altitude;pressure_sealevel;temperature
85122;BMP280;75480;52.260;20.916;2024-02-14T18:04:18;100855.28;;;8.79
85122;BMP280;75480;52.260;20.916;2024-02-14T18:05:50;100875.63;;;8.91
85122;BMP280;75480;52.260;20.916;2024-02-14T18:07:21;100878.69;;;8.93
85122;BMP280;75480;52.260;20.916;2024-02-14T18:08:51;100867.97;;;8.95
85122;BMP280;75480;52.260;20.916;2024-02-14T18:10:22;100854.09;;;8.89
85122;BMP280;75480;52.260;20.916;2024-02-14T18:11:54;100872.69;;;8.94
85122;BMP280;75480;52.260;20.916;2024-02-14T18:13:24;100872.56;;;8.98
85122;BMP280;75480;52.260;20.916;2024-02-14T18:14:55;100872.88;;;9.00
85122;BMP280;75480;52.260;20.916;2024-02-14T18:16:27;100868.13;;;8.91
85122;BMP280;75480;52.260;20.916;2024-02-14T18:17:58;100876.19;;;8.86
85122;BMP280;75480;52.260;20.916;2024-02-14T18:19:28;100873.78;;;8.88
85122;BMP280;75480;52.260;20.916;2024-02-14T18:20:59;100876.06;;;8.89
85122;BMP280;75480;52.260;20.916;2024-02-14T18:22:30;100872.56;;;8.80
85122;BMP280;75480;52.260;20.916;2024-02-14T18:24:01;100874.06;;;8.81
85122;BMP280;75480;52.260;20.916;2024-02-14T18:25:31;100879.56;;;8.81
85122;BMP280;75480;52.260;20.916;2024-02-14T18:27:02;100879.88;;;8.83
85122;BMP280;75480;52.260;20.916;2024-02-14T18:28:33;100878.66;;;8.84
85122;BMP280;75480;52.260;20.916;2024-02-14T18:30:05;100882.50;;;8.86
85122;BMP280;75480;52.260;20.916;2024-02-14T18:31:35;100881.13;;;8.91
85122;BMP280;75480;52.260;20.916;2024-02-14T18:33:06;100880.50;;;8.96
85122;BMP280;75480;52.260;20.916;2024-02-14T18:34:41;100877.16;;;9.01
85122;BMP280;75480;52.260;20.916;2024-02-14T18:36:11;100880.97;;;9.03
85122;BMP280;75480;52.260;20.916;2024-02-14T18:37:43;100870.59;;;9.07
85122;BMP280;75480;52.260;20.916;2024-02-14T18:39:14;100885.72;;;9.12
85122;BMP280;75480;52.260;20.916;2024-02-14T18:40:45;100872.44;;;9.10
85122;BMP280;75480;52.260;20.916;2024-02-14T18:42:27;100872.44;;;9.10
85122;BMP280;75480;52.260;20.916;2024-02-14T18:43:58;100873.19;;;9.11
85122;BMP280;75480;52.260;20.916;2024-02-14T18:45:33;100876.84;;;9.08
85122;BMP280;75480;52.260;20.916;2024-02-14T18:47:04;100885.88;;;9.08
85122;BMP280;75480;52.260;20.916;2024-02-14T18:48:35;100876.19;;;8.86
85122;BMP280;75480;52.260;20.916;2024-02-14T18:50:07;100876.66;;;8.84
85122;BMP280;75480;52.260;20.916;2024-02-14T18:51:38;100880.66;;;8.83
85122;BMP280;75480;52.260;20.916;2024-02-14T18:53:11;100880.50;;;8.77
85122;BMP280;75480;52.260;20.916;2024-02-14T18:54:42;100878.59;;;8.65
85122;BMP280;75480;52.260;20.916;2024-02-14T18:56:25;100872.19;;;8.59
85122;BMP280;75480;52.260;20.916;2024-02-14T18:57:56;100874.94;;;8.59
85122;BMP280;75480;52.260;20.916;2024-02-14T18:59:26;100877.34;;;8.57
85122;BMP280;75480;52.260;20.916;2024-02-14T19:00:57;100888.69;;;8.59
85122;BMP280;75480;52.260;20.916;2024-02-14T19:02:28;100878.25;;;8.54
85122;BMP280;75480;52.260;20.916;2024-02-14T19:04:03;100876.13;;;8.58
85122;BMP280;75480;52.260;20.916;2024-02-14T19:05:35;100872.63;;;8.58
85122;BMP280;75480;52.260;20.916;2024-02-14T19:07:05;100877.25;;;8.61
85122;BMP280;75480;52.260;20.916;2024-02-14T19:08:38;100868.69;;;8.59
85122;BMP280;75480;52.260;20.916;2024-02-14T19:10:09;100876.94;;;8.59
85122;BMP280;75480;52.260;20.916;2024-02-14T19:11:41;100870.63;;;8.49
85122;BMP280;75480;52.260;20.916;2024-02-14T19:13:12;100867.00;;;8.52
85122;BMP280;75480;52.260;20.916;2024-02-14T19:14:42;100861.94;;;8.51
85122;BMP280;75480;52.260;20.916;2024-02-14T19:16:13;100862.25;;;8.53
85122;BMP280;75480;52.260;20.916;2024-02-14T19:17:44;100866.38;;;8.57
85122;BMP280;75480;52.260;20.916;2024-02-14T19:19:15;100870.53;;;8.62
85122;BMP280;75480;52.260;20.916;2024-02-14T19:20:46;100876.13;;;8.58
85122;BMP280;75480;52.260;20.916;2024-02-14T19:22:19;100863.31;;;8.55
85122;BMP280;75480;52.260;20.916;2024-02-14T19:23:50;100866.81;;;8.56
85122;BMP280;75480;52.260;20.916;2024-02-14T19:25:20;100868.25;;;8.60
85122;BMP280;75480;52.260;20.916;2024-02-14T19:26:51;100865.94;;;8.59
85122;BMP280;75480;52.260;20.916;2024-02-14T19:28:22;100863.31;;;8.55
85122;BMP280;75480;52.260;20.916;2024-02-14T19:29:53;100863.63;;;8.57
85122;BMP280;75480;52.260;20.916;2024-02-14T19:31:23;100868.31;;;8.48
85122;BMP280;75480;52.260;20.916;2024-02-14T19:32:54;100868.66;;;8.50
85122;BMP280;75480;52.260;20.916;2024-02-14T19:34:25;100871.88;;;8.57
85122;BMP280;75480;52.260;20.916;2024-02-14T19:35:56;100866.25;;;8.61
85122;BMP280;75480;52.260;20.916;2024-02-14T19:37:26;100872.34;;;8.65
85122;BMP280;75480;52.260;20.916;2024-02-14T19:38:57;100861.78;;;8.54
85122;BMP280;75480;52.260;20.916;2024-02-14T19:40:28;100872.63;;;8.58
85122;BMP280;75480;52.260;20.916;2024-02-14T19:41:58;100867.00;;;8.52
85122;BMP280;75480;52.260;20.916;2024-02-14T19:43:29;100873.81;;;8.48
85122;BMP280;75480;52.260;20.916;2024-02-14T19:45:00;100865.72;;;8.44
85122;BMP280;75480;52.260;20.916;2024-02-14T19:46:30;100870.31;;;8.47
85122;BMP280;75480;52.260;20.916;2024-02-14T19:48:01;100861.00;;;8.44
85122;BMP280;75480;52.260;20.916;2024-02-14T19:49:32;100865.56;;;8.48
85122;BMP280;75480;52.260;20.916;2024-02-14T19:51:03;100869.28;;;8.54
85122;BMP280;75480;52.260;20.916;2024-02-14T19:52:34;100860.53;;;8.46
85122;BMP280;75480;52.260;20.916;2024-02-14T19:54:05;100865.44;;;8.42
85122;BMP280;75480;52.260;20.916;2024-02-14T19:55:35;100862.69;;;8.42
85122;BMP280;75480;52.260;20.916;2024-02-14T19:57:06;100864.81;;;8.47
85122;BMP280;75480;52.260;20.916;2024-02-14T19:58:37;100870.31;;;8.47
85122;BMP280;75480;52.260;20.916;2024-02-14T20:00:08;100872.75;;;8.45
85122;BMP280;75480;52.260;20.916;2024-02-14T20:01:39;100869.47;;;8.28
85122;BMP280;75480;52.260;20.916;2024-02-14T20:03:10;100874.69;;;8.35
85122;BMP280;75480;52.260;20.916;2024-02-14T20:04:41;100867.06;;;8.39
85122;BMP280;75480;52.260;20.916;2024-02-14T20:06:12;100882.50;;;8.37
85122;BMP280;75480;52.260;20.916;2024-02-14T20:07:43;100874.44;;;8.42
85122;BMP280;75480;52.260;20.916;2024-02-14T20:09:14;100876.44;;;8.42
85122;BMP280;75480;52.260;20.916;2024-02-14T20:10:45;100878.63;;;8.25
85122;BMP280;75480;52.260;20.916;2024-02-14T20:12:16;100862.69;;;8.11
85122;BMP280;75480;52.260;20.916;2024-02-14T20:13:48;100874.50;;;8.21
85122;BMP280;75480;52.260;20.916;2024-02-14T20:15:19;100870.53;;;8.22
85122;BMP280;75480;52.260;20.916;2024-02-14T20:16:49;100873.44;;;8.27
85122;BMP280;75480;52.260;20.916;2024-02-14T20:18:20;100878.00;;;8.21
85122;BMP280;75480;52.260;20.916;2024-02-14T20:19:50;100867.78;;;8.22
85122;BMP280;75480;52.260;20.916;2024-02-14T20:21:21;100866.34;;;8.08
85122;BMP280;75480;52.260;20.916;2024-02-14T20:22:53;100868.97;;;8.11
85122;BMP280;75480;52.260;20.916;2024-02-14T20:24:24;100872.41;;;8.03
85122;BMP280;75480;52.260;20.916;2024-02-14T20:25:55;100875.91;;;8.03
85122;BMP280;75480;52.260;20.916;2024-02-14T20:27:26;100876.97;;;7.97
85122;BMP280;75480;52.260;20.916;2024-02-14T20:28:56;100872.09;;;8.01
85122;BMP280;75480;52.260;20.916;2024-02-14T20:30:27;100867.97;;;7.96
85122;BMP280;75480;52.260;20.916;2024-02-14T20:32:01;100864.78;;;7.98
85122;BMP280;75480;52.260;20.916;2024-02-14T20:33:32;100867.19;;;7.96
85122;BMP280;75480;52.260;20.916;2024-02-14T20:35:04;100870.00;;;8.05
85122;BMP280;75480;52.260;20.916;2024-02-14T20:36:35;100868.78;;;8.06
85122;BMP280;75480;52.260;20.916;2024-02-14T20:38:07;100868.47;;;8.04
85122;BMP280;75480;52.260;20.916;2024-02-14T20:39:40;100862.94;;;7.95
85122;BMP280;75480;52.260;20.916;2024-02-14T20:41:13;100859.03;;;7.83
85122;BMP280;75480;52.260;20.916;2024-02-14T20:42:44;100855.56;;;7.92
85122;BMP280;75480;52.260;20.916;2024-02-14T20:44:15;100853.44;;;7.87
85122;BMP280;75480;52.260;20.916;2024-02-14T20:45:47;100849.53;;;7.97
85122;BMP280;75480;52.260;20.916;2024-02-14T20:47:18;100855.00;;;7.97
85122;BMP280;75480;52.260;20.916;2024-02-14T20:48:52;100855.19;;;7.80
85122;BMP280;75480;52.260;20.916;2024-02-14T20:50:23;100854.38;;;7.71
85122;BMP280;75480;52.260;20.916;2024-02-14T20:51:53;100846.41;;;7.64
85122;BMP280;75480;52.260;20.916;2024-02-14T20:53:24;100854.06;;;7.69
85122;BMP280;75480;52.260;20.916;2024-02-14T20:54:55;100852.16;;;7.78
85122;BMP280;75480;52.260;20.916;2024-02-14T20:56:26;100847.94;;;7.87
85122;BMP280;75480;52.260;20.916;2024-02-14T20:57:57;100846.88;;;7.93
85122;BMP280;75480;52.260;20.916;2024-02-14T20:59:28;100851.81;;;7.98
85122;BMP280;75480;52.260;20.916;2024-02-14T21:00:58;100857.63;;;8.00
85122;BMP280;75480;52.260;20.916;2024-02-14T21:02:29;100846.63;;;8.00
85122;BMP280;75480;52.260;20.916;2024-02-14T21:04:00;100847.66;;;7.94
85122;BMP280;75480;52.260;20.916;2024-02-14T21:05:31;100850.38;;;7.94
85122;BMP280;75480;52.260;20.916;2024-02-14T21:07:01;100848.09;;;7.92
85122;BMP280;75480;52.260;20.916;2024-02-14T21:08:32;100860.28;;;7.91
85122;BMP280;75480;52.260;20.916;2024-02-14T21:10:03;100854.34;;;7.93
85122;BMP280;75480;52.260;20.916;2024-02-14T21:11:34;100851.91;;;7.86
85122;BMP280;75480;52.260;20.916;2024-02-14T21:13:04;100851.56;;;7.83
85122;BMP280;75480;52.260;20.916;2024-02-14T21:14:38;100854.81;;;7.91
85122;BMP280;75480;52.260;20.916;2024-02-14T21:16:09;100844.59;;;7.92
85122;BMP280;75480;52.260;20.916;2024-02-14T21:17:39;100855.56;;;7.92
85122;BMP280;75480;52.260;20.916;2024-02-14T21:19:10;100847.66;;;7.94
85122;BMP280;75480;52.260;20.916;2024-02-14T21:20:41;100845.34;;;7.92
85122;BMP280;75480;52.260;20.916;2024-02-14T21:22:12;100850.06;;;7.92
85122;BMP280;75480;52.260;20.916;2024-02-14T21:23:42;100847.94;;;7.87
85122;BMP280;75480;52.260;20.916;2024-02-14T21:25:13;100846.84;;;7.84
85122;BMP280;75480;52.260;20.916;2024-02-14T21:26:44;100850.97;;;7.79
85122;BMP280;75480;52.260;20.916;2024-02-14T21:28:19;100844.75;;;7.66
85122;BMP280;75480;52.260;20.916;2024-02-14T21:29:50;100845.09;;;7.68
85122;BMP280;75480;52.260;20.916;2024-02-14T21:31:21;100846.03;;;7.74
85122;BMP280;75480;52.260;20.916;2024-02-14T21:32:54;100839.75;;;7.74
85122;BMP280;75480;52.260;20.916;2024-02-14T21:34:25;100843.72;;;7.73
85122;BMP280;75480;52.260;20.916;2024-02-14T21:35:57;100843.41;;;7.71
85122;BMP280;75480;52.260;20.916;2024-02-14T21:37:27;100838.91;;;7.77
85122;BMP280;75480;52.260;20.916;2024-02-14T21:38:58;100839.66;;;7.77
85122;BMP280;75480;52.260;20.916;2024-02-14T21:40:29;100851.25;;;7.81
85122;BMP280;75480;52.260;20.916;2024-02-14T21:42:00;100838.94;;;7.86
85122;BMP280;75480;52.260;20.916;2024-02-14T21:43:31;100841.25;;;7.88
85122;BMP280;75480;52.260;20.916;2024-02-14T21:45:01;100837.97;;;7.80
85122;BMP280;75480;52.260;20.916;2024-02-14T21:46:33;100843.31;;;7.83
85122;BMP280;75480;52.260;20.916;2024-02-14T21:48:04;100834.72;;;7.72
85122;BMP280;75480;52.260;20.916;2024-02-14T21:49:37;100841.44;;;7.71
85122;BMP280;75480;52.260;20.916;2024-02-14T21:51:08;100839.31;;;7.75
85122;BMP280;75480;52.260;20.916;2024-02-14T21:52:40;100837.53;;;7.81
85122;BMP280;75480;52.260;20.916;2024-02-14T21:54:11;100843.78;;;7.82
85122;BMP280;75480;52.260;20.916;2024-02-14T21:55:42;100832.13;;;7.69
85122;BMP280;75480;52.260;20.916;2024-02-14T21:57:13;100828.75;;;7.65
85122;BMP280;75480;52.260;20.916;2024-02-14T21:58:44;100831.63;;;7.61
85122;BMP280;75480;52.260;20.916;2024-02-14T22:00:15;100838.56;;;7.53
85122;BMP280;75480;52.260;20.916;2024-02-14T22:01:47;100832.13;;;7.47
85122;BMP280;75480;52.260;20.916;2024-02-14T22:03:17;100831.88;;;7.54
85122;BMP280;75480;52.260;20.916;2024-02-14T22:04:48;100833.09;;;7.53
85122;BMP280;75480;52.260;20.916;2024-02-14T22:06:19;100833.84;;;7.54
85122;BMP280;75480;52.260;20.916;2024-02-14T22:07:50;100836.78;;;7.59
85122;BMP280;75480;52.260;20.916;2024-02-14T22:09:24;100836.34;;;7.61
85122;BMP280;75480;52.260;20.916;2024-02-14T22:10:55;100839.72;;;7.65
85122;BMP280;75480;52.260;20.916;2024-02-14T22:12:28;100831.03;;;7.66
85122;BMP280;75480;52.260;20.916;2024-02-14T22:13:59;100835.31;;;7.67
85122;BMP280;75480;52.260;20.916;2024-02-14T22:15:31;100843.53;;;7.67
85122;BMP280;75480;52.260;20.916;2024-02-14T22:17:03;100832.56;;;7.67
85122;BMP280;75480;52.260;20.916;2024-02-14T22:18:37;100840.66;;;7.71
85122;BMP280;75480;52.260;20.916;2024-02-14T22:20:08;100835.94;;;7.71
85122;BMP280;75480;52.260;20.916;2024-02-14T22:21:41;100834.19;;;7.77
85122;BMP280;75480;52.260;20.916;2024-02-14T22:23:11;100833.00;;;7.66
85122;BMP280;75480;52.260;20.916;2024-02-14T22:24:42;100832.25;;;7.65
85122;BMP280;75480;52.260;20.916;2024-02-14T22:26:13;100834.81;;;7.60
85122;BMP280;75480;52.260;20.916;2024-02-14T22:27:44;100837.75;;;7.65
85122;BMP280;75480;52.260;20.916;2024-02-14T22:29:15;100838.06;;;7.67
85122;BMP280;75480;52.260;20.916;2024-02-14T22:30:45;100828.78;;;7.74
85122;BMP280;75480;52.260;20.916;2024-02-14T22:32:16;100838.72;;;7.80
85122;BMP280;75480;52.260;20.916;2024-02-14T22:33:48;100832.97;;;7.78
85122;BMP280;75480;52.260;20.916;2024-02-14T22:35:20;100840.03;;;7.89
85122;BMP280;75480;52.260;20.916;2024-02-14T22:36:50;100839.81;;;7.83
85122;BMP280;75480;52.260;20.916;2024-02-14T22:38:23;100840.59;;;7.83
85122;BMP280;75480;52.260;20.916;2024-02-14T22:39:54;100842.47;;;7.87
85122;BMP280;75480;52.260;20.916;2024-02-14T22:41:24;100838.59;;;7.84
85122;BMP280;75480;52.260;20.916;2024-02-14T22:42:55;100834.66;;;7.85
85122;BMP280;75480;52.260;20.916;2024-02-14T22:44:26;100834.50;;;7.79
85122;BMP280;75480;52.260;20.916;2024-02-14T22:45:57;100837.53;;;7.81
85122;BMP280;75480;52.260;20.916;2024-02-14T22:47:28;100839.97;;;7.79
85122;BMP280;75480;52.260;20.916;2024-02-14T22:49:00;100836.75;;;7.81
85122;BMP280;75480;52.260;20.916;2024-02-14T22:50:32;100833.41;;;7.77
85122;BMP280;75480;52.260;20.916;2024-02-14T22:52:04;100831.72;;;7.58
85122;BMP280;75480;52.260;20.916;2024-02-14T22:53:34;100836.22;;;7.64
85122;BMP280;75480;52.260;20.916;2024-02-14T22:55:05;100830.28;;;7.66
85122;BMP280;75480;52.260;20.916;2024-02-14T22:56:38;100828.28;;;7.66
85122;BMP280;75480;52.260;20.916;2024-02-14T22:58:09;100829.47;;;7.56
85122;BMP280;75480;52.260;20.916;2024-02-14T22:59:42;100825.31;;;7.52
85122;BMP280;75480;52.260;20.916;2024-02-14T23:01:13;100823.44;;;7.48
85122;BMP280;75480;52.260;20.916;2024-02-14T23:02:44;100823.78;;;7.50
85122;BMP280;75480;52.260;20.916;2024-02-14T23:04:15;100835.56;;;7.60
85122;BMP280;75480;52.260;20.916;2024-02-14T23:05:46;100819.88;;;7.61
85122;BMP280;75480;52.260;20.916;2024-02-14T23:07:17;100828.88;;;7.61
85122;BMP280;75480;52.260;20.916;2024-02-14T23:08:49;100834.69;;;7.63
85122;BMP280;75480;52.260;20.916;2024-02-14T23:10:20;100832.56;;;7.67
85122;BMP280;75480;52.260;20.916;2024-02-14T23:11:51;100828.75;;;7.65
85122;BMP280;75480;52.260;20.916;2024-02-14T23:13:22;100832.47;;;7.58
85122;BMP280;75480;52.260;20.916;2024-02-14T23:14:53;100833.41;;;7.55
85122;BMP280;75480;52.260;20.916;2024-02-14T23:16:23;100828.50;;;7.50
85122;BMP280;75480;52.260;20.916;2024-02-14T23:17:54;100833.31;;;7.46
85122;BMP280;75480;52.260;20.916;2024-02-14T23:19:25;100828.81;;;7.52
85122;BMP280;75480;52.260;20.916;2024-02-14T23:20:58;100832.59;;;7.45
85122;BMP280;75480;52.260;20.916;2024-02-14T23:22:29;100828.91;;;7.48
85122;BMP280;75480;52.260;20.916;2024-02-14T23:24:00;100832.19;;;7.56
85122;BMP280;75480;52.260;20.916;2024-02-14T23:25:30;100832.97;;;7.57
85122;BMP280;75480;52.260;20.916;2024-02-14T23:27:01;100830.47;;;7.49
85122;BMP280;75480;52.260;20.916;2024-02-14T23:28:32;100831.72;;;7.58
85122;BMP280;75480;52.260;20.916;2024-02-14T23:30:05;100825.00;;;7.49
85122;BMP280;75480;52.260;20.916;2024-02-14T23:31:39;100832.66;;;7.55
85122;BMP280;75480;52.260;20.916;2024-02-14T23:33:10;100832.88;;;7.47
85122;BMP280;75480;52.260;20.916;2024-02-14T23:34:42;100832.78;;;7.51
85122;BMP280;75480;52.260;20.916;2024-02-14T23:36:13;100830.66;;;7.55
85122;BMP280;75480;52.260;20.916;2024-02-14T23:37:44;100825.94;;;7.56
85122;BMP280;75480;52.260;20.916;2024-02-14T23:39:15;100828.97;;;7.58
85122;BMP280;75480;52.260;20.916;2024-02-14T23:40:46;100828.69;;;7.56
85122;BMP280;75480;52.260;20.916;2024-02-14T23:42:17;100829.47;;;7.56
85122;BMP280;75480;52.260;20.916;2024-02-14T23:43:47;100833.16;;;7.62
85122;BMP280;75480;52.260;20.916;2024-02-14T23:45:18;100838.06;;;7.67
85122;BMP280;75480;52.260;20.916;2024-02-14T23:46:50;100834.22;;;7.65
85122;BMP280;75480;52.260;20.916;2024-02-14T23:48:21;100835.31;;;7.67
85122;BMP280;75480;52.260;20.916;2024-02-14T23:49:53;100839.53;;;7.59
85122;BMP280;75480;52.260;20.916;2024-02-14T23:51:24;100836.59;;;7.54
85122;BMP280;75480;52.260;20.916;2024-02-14T23:52:55;100831.13;;;7.54
85122;BMP280;75480;52.260;20.916;2024-02-14T23:54:26;100828.81;;;7.52
85122;BMP280;75480;52.260;20.916;2024-02-14T23:55:57;100840.88;;;7.55
85122;BMP280;75480;52.260;20.916;2024-02-14T23:57:28;100825.47;;;7.57
85122;BMP280;75480;52.260;20.916;2024-02-14T23:58:59;100833.22;;;7.49
